createdAt,value
2019-05-16T00:00:35.834Z,98059.28
2019-05-16T00:02:59.332Z,98049.58
2019-05-16T00:05:23.014Z,98052.71
2019-05-16T00:07:48.996Z,98043.47
2019-05-16T00:10:11.940Z,98037.30
2019-05-16T00:12:35.541Z,98038.55
2019-05-16T00:14:59.138Z,98036.39
2019-05-16T00:17:22.671Z,98031.60
2019-05-16T00:19:48.273Z,98030.34
2019-05-16T00:22:11.436Z,98034.84
2019-05-16T00:24:35.002Z,98030.21
2019-05-16T00:26:58.537Z,98033.75
2019-05-16T00:29:22.052Z,98021.03
2019-05-16T00:31:45.605Z,98021.03
2019-05-16T00:34:09.609Z,98019.49
2019-05-16T00:36:33.341Z,98016.59
2019-05-16T00:38:57.830Z,98022.16
2019-05-16T00:41:21.566Z,98017.84
2019-05-16T00:43:45.090Z,98012.26
2019-05-16T00:46:08.698Z,98014.13
2019-05-16T00:48:32.195Z,98009.66
2019-05-16T00:50:55.741Z,98002.70
2019-05-16T00:53:19.343Z,97996.08
2019-05-16T00:55:43.909Z,98002.09
2019-05-16T00:58:08.842Z,97990.83
2019-05-16T01:00:41.237Z,97991.74
2019-05-16T01:03:04.776Z,97988.03
2019-05-16T01:05:28.485Z,97985.58
2019-05-16T01:07:51.965Z,97989.77
2019-05-16T01:10:15.537Z,97977.84
2019-05-16T01:12:39.321Z,97975.64
2019-05-16T01:15:02.959Z,97976.75
2019-05-16T01:17:28.330Z,97973.34
2019-05-16T01:19:51.789Z,97966.11
2019-05-16T01:22:15.320Z,97969.97
2019-05-16T01:24:41.496Z,97968.73
2019-05-16T01:27:04.157Z,97962.70
2019-05-16T01:29:28.227Z,97961.94
2019-05-16T01:31:51.881Z,97964.08
2019-05-16T01:34:15.391Z,97956.86
2019-05-16T01:36:40.845Z,97957.16
2019-05-16T01:39:05.105Z,97951.13
2019-05-16T01:41:28.624Z,97949.13
2019-05-16T01:43:52.133Z,97952.97
2019-05-16T01:46:17.853Z,97948.98
2019-05-16T01:48:40.933Z,97937.23
2019-05-16T01:51:04.458Z,97934.91
2019-05-16T01:53:28.055Z,97933.69
2019-05-16T01:55:51.562Z,97935.67
2019-05-16T01:58:15.097Z,97938.77
2019-05-16T02:00:49.676Z,97932.11
2019-05-16T02:03:05.024Z,97925.45
2019-05-16T02:05:28.528Z,97928.25
2019-05-16T02:07:52.071Z,97933.20
2019-05-16T02:10:18.172Z,97932.73
2019-05-16T02:12:41.465Z,97919.30
2019-05-16T02:15:07.807Z,97920.98
2019-05-16T02:17:31.056Z,97918.98
2019-05-16T02:19:54.641Z,97914.36
2019-05-16T02:22:18.187Z,97911.56
2019-05-16T02:24:41.687Z,97909.39
2019-05-16T02:27:05.264Z,97907.08
2019-05-16T02:29:29.863Z,97902.76
2019-05-16T02:31:53.525Z,97905.39
2019-05-16T02:34:17.036Z,97896.11
2019-05-16T02:36:40.695Z,97900.30
2019-05-16T02:39:05.926Z,97898.91
2019-05-16T02:41:31.166Z,97897.05
2019-05-16T02:43:54.781Z,97892.70
2019-05-16T02:46:21.565Z,97893.81
2019-05-16T02:48:43.930Z,97893.36
2019-05-16T02:51:10.834Z,97885.48
2019-05-16T02:53:32.706Z,97884.70
2019-05-16T02:55:56.197Z,97884.25
2019-05-16T02:58:23.455Z,97884.86
2019-05-16T03:00:45.110Z,97881.77
2019-05-16T03:03:12.126Z,97882.25
2019-05-16T03:05:34.956Z,97883.61
2019-05-16T03:08:01.261Z,97879.69
2019-05-16T03:10:24.158Z,97871.67
2019-05-16T03:12:51.329Z,97873.06
2019-05-16T03:15:15.082Z,97872.59
2019-05-16T03:17:41.675Z,97870.62
2019-05-16T03:20:06.009Z,97878.32
2019-05-16T03:22:31.524Z,97874.79
2019-05-16T03:24:54.927Z,97876.80
2019-05-16T03:27:21.380Z,97872.48
2019-05-16T03:29:43.705Z,97874.16
2019-05-16T03:32:07.216Z,97869.79
2019-05-16T03:34:34.313Z,97864.88
2019-05-16T03:36:55.980Z,97860.70
2019-05-16T03:39:21.245Z,97869.20
2019-05-16T03:41:44.970Z,97857.75
2019-05-16T03:44:11.299Z,97859.47
2019-05-16T03:46:33.788Z,97860.07
2019-05-16T03:48:57.313Z,97864.11
2019-05-16T03:51:21.495Z,97867.03
2019-05-16T03:53:45.535Z,97864.71
2019-05-16T03:56:11.163Z,97863.25
2019-05-16T03:58:34.367Z,97862.28
2019-05-16T04:01:01.834Z,97864.16
2019-05-16T04:03:23.278Z,97862.50
2019-05-16T04:05:46.942Z,97861.70
2019-05-16T04:08:18.979Z,97864.14
2019-05-16T04:10:35.696Z,97858.00
2019-05-16T04:13:01.109Z,97853.55
2019-05-16T04:15:24.461Z,97860.69
2019-05-16T04:17:51.056Z,97859.80
2019-05-16T04:20:14.310Z,97854.23
2019-05-16T04:22:40.657Z,97850.22
2019-05-16T04:25:03.480Z,97842.02
2019-05-16T04:27:26.995Z,97856.09
2019-05-16T04:29:51.373Z,97851.76
2019-05-16T04:32:20.847Z,97852.37
2019-05-16T04:34:43.393Z,97860.84
2019-05-16T04:37:06.891Z,97853.09
2019-05-16T04:39:31.809Z,97849.38
2019-05-16T04:41:55.774Z,97849.53
2019-05-16T04:44:21.288Z,97842.11
2019-05-16T04:46:44.534Z,97843.80
2019-05-16T04:49:11.255Z,97840.73
2019-05-16T04:51:33.321Z,97837.15
2019-05-16T04:53:56.854Z,97834.48
2019-05-16T04:56:21.659Z,97843.73
2019-05-16T04:58:46.714Z,97842.64
2019-05-16T05:01:11.223Z,97846.15
2019-05-16T05:03:35.072Z,97844.23
2019-05-16T05:06:01.251Z,97840.50
2019-05-16T05:08:23.824Z,97835.08
2019-05-16T05:10:47.353Z,97847.28
2019-05-16T05:13:11.144Z,97837.22
2019-05-16T05:15:34.765Z,97833.23
2019-05-16T05:18:00.615Z,97832.82
2019-05-16T05:20:24.376Z,97827.21
2019-05-16T05:22:49.833Z,97826.91
2019-05-16T05:25:13.461Z,97818.86
2019-05-16T05:27:36.974Z,97823.14
2019-05-16T05:30:01.587Z,97814.77
2019-05-16T05:32:25.094Z,97814.99
2019-05-16T05:34:50.374Z,97810.27
2019-05-16T05:37:13.948Z,97810.23
2019-05-16T05:39:39.583Z,97800.73
2019-05-16T05:42:02.747Z,97799.42
2019-05-16T05:44:26.289Z,97800.13
2019-05-16T05:46:51.170Z,97801.22
2019-05-16T05:49:15.978Z,97801.02
2019-05-16T05:51:40.615Z,97788.91
2019-05-16T05:54:04.434Z,97790.44
2019-05-16T05:56:30.318Z,97788.22
2019-05-16T05:58:53.205Z,97788.41
2019-05-16T06:01:16.714Z,97789.37
2019-05-16T06:03:40.256Z,97794.75
2019-05-16T06:06:03.777Z,97791.22
2019-05-16T06:08:27.273Z,97785.34
2019-05-16T06:10:50.850Z,97789.97
2019-05-16T06:13:14.401Z,97789.52
2019-05-16T06:15:39.934Z,97787.95
2019-05-16T06:18:03.293Z,97793.86
2019-05-16T06:20:26.816Z,97793.19
2019-05-16T06:22:50.914Z,97786.41
2019-05-16T06:25:14.655Z,97785.20
2019-05-16T06:27:40.426Z,97783.49
2019-05-16T06:30:03.505Z,97787.84
2019-05-16T06:32:27.020Z,97772.95
2019-05-16T06:34:50.887Z,97772.42
2019-05-16T06:37:14.583Z,97762.24
2019-05-16T06:39:44.573Z,97767.26
2019-05-16T06:42:03.358Z,97768.05
2019-05-16T06:44:26.904Z,97763.32
2019-05-16T06:47:08.830Z,97754.83
2019-05-16T06:49:15.724Z,97755.16
2019-05-16T06:51:39.820Z,97751.71
2019-05-16T06:54:03.771Z,97743.85
2019-05-16T06:56:27.466Z,97742.12
2019-05-16T06:58:52.054Z,97744.28
2019-05-16T07:01:15.825Z,97739.03
2019-05-16T07:03:40.097Z,97734.63
2019-05-16T07:06:03.907Z,97737.30
2019-05-16T07:08:27.407Z,97732.30
2019-05-16T07:10:51.227Z,97736.97
2019-05-16T07:13:14.879Z,97732.77
2019-05-16T07:15:40.221Z,97739.00
2019-05-16T07:18:03.878Z,97730.53
2019-05-16T07:20:30.045Z,97732.80
2019-05-16T07:22:52.655Z,97731.91
2019-05-16T07:25:16.339Z,97726.08
2019-05-16T07:27:40.284Z,97726.75
2019-05-16T07:30:06.624Z,97721.58
2019-05-16T07:32:30.358Z,97727.29
2019-05-16T07:34:53.844Z,97717.97
2019-05-16T07:37:19.895Z,97723.24
2019-05-16T07:39:42.762Z,97712.52
2019-05-16T07:42:06.372Z,97719.48
2019-05-16T07:44:30.927Z,97718.39
2019-05-16T07:46:54.739Z,97714.16
2019-05-16T07:49:19.767Z,97715.94
2019-05-16T07:51:43.359Z,97707.19
2019-05-16T07:54:06.888Z,97705.69
2019-05-16T07:56:31.181Z,97711.88
2019-05-16T07:58:54.824Z,97699.28
2019-05-16T08:01:20.043Z,97703.36
2019-05-16T08:03:44.317Z,97704.27
2019-05-16T08:06:10.707Z,97702.81
2019-05-16T08:08:33.272Z,97700.88
2019-05-16T08:10:56.821Z,97702.94
2019-05-16T08:13:21.221Z,97695.45
2019-05-16T08:15:45.029Z,97695.27
2019-05-16T08:18:11.103Z,97704.98
2019-05-16T08:20:34.719Z,97707.73
2019-05-16T08:23:00.654Z,97703.34
2019-05-16T08:25:23.565Z,97704.75
2019-05-16T08:27:47.089Z,97701.72
2019-05-16T08:30:11.335Z,97703.34
2019-05-16T08:32:34.908Z,97702.03
2019-05-16T08:35:01.167Z,97698.71
2019-05-16T08:37:36.777Z,97695.91
2019-05-16T08:39:50.968Z,97691.68
2019-05-16T08:42:14.315Z,97695.24
2019-05-16T08:44:41.566Z,97691.20
2019-05-16T08:47:06.308Z,97681.88
2019-05-16T08:49:30.708Z,97686.92
2019-05-16T08:51:54.436Z,97686.72
2019-05-16T08:54:17.992Z,97686.34
2019-05-16T08:56:44.134Z,97681.32
2019-05-16T08:59:06.959Z,97676.05
2019-05-16T09:01:35.015Z,97675.62
2019-05-16T09:03:55.775Z,97678.95
2019-05-16T09:06:22.826Z,97674.25
2019-05-16T09:08:44.605Z,97674.59
2019-05-16T09:11:26.961Z,97670.97
2019-05-16T09:13:33.437Z,97667.33
2019-05-16T09:15:57.221Z,97666.82
2019-05-16T09:18:20.783Z,97668.08
2019-05-16T09:20:44.291Z,97662.69
2019-05-16T09:23:07.848Z,97664.50
2019-05-16T09:25:31.351Z,97664.41
2019-05-16T09:27:56.898Z,97667.73
2019-05-16T09:30:20.693Z,97663.12
2019-05-16T09:32:44.266Z,97663.93
2019-05-16T09:35:09.436Z,97660.77
2019-05-16T09:37:32.964Z,97663.35
2019-05-16T09:39:57.227Z,97661.17
2019-05-16T09:42:21.191Z,97663.02
2019-05-16T09:44:47.363Z,97663.08
2019-05-16T09:47:09.986Z,97661.35
2019-05-16T09:49:33.574Z,97662.67
2019-05-16T09:51:57.073Z,97659.13
2019-05-16T09:54:20.608Z,97658.39
2019-05-16T09:56:46.309Z,97665.77
2019-05-16T09:59:09.453Z,97659.31
2019-05-16T10:01:33.058Z,97661.27
2019-05-16T10:03:56.708Z,97653.53
2019-05-16T10:06:20.211Z,97651.72
2019-05-16T10:08:43.849Z,97659.61
2019-05-16T10:11:07.502Z,97659.91
2019-05-16T10:13:31.141Z,97663.45
2019-05-16T10:15:54.790Z,97656.20
2019-05-16T10:18:18.422Z,97655.48
2019-05-16T10:20:43.208Z,97661.36
2019-05-16T10:23:14.391Z,97653.15
2019-05-16T10:25:32.293Z,97657.12
2019-05-16T10:27:55.815Z,97651.70
2019-05-16T10:30:20.923Z,97650.78
2019-05-16T10:32:44.450Z,97649.99
2019-05-16T10:35:08.591Z,97650.97
2019-05-16T10:37:32.091Z,97650.69
2019-05-16T10:39:56.376Z,97652.16
2019-05-16T10:42:28.790Z,97655.05
2019-05-16T10:44:48.327Z,97651.66
2019-05-16T10:47:11.377Z,97637.11
2019-05-16T10:49:38.777Z,97639.69
2019-05-16T10:52:00.257Z,97640.19
2019-05-16T10:54:24.101Z,97635.52
2019-05-16T10:56:47.822Z,97637.95
2019-05-16T10:59:46.650Z,97635.24
2019-05-16T11:01:36.815Z,97643.88
2019-05-16T11:04:00.445Z,97639.58
2019-05-16T11:06:28.218Z,97642.66
2019-05-16T11:08:49.545Z,97640.28
2019-05-16T11:11:13.239Z,97639.95
2019-05-16T11:13:37.092Z,97643.58
2019-05-16T11:16:00.595Z,97635.59
2019-05-16T11:18:26.923Z,97639.84
2019-05-16T11:20:49.699Z,97638.59
2019-05-16T11:23:13.366Z,97632.63
2019-05-16T11:25:36.929Z,97634.13
2019-05-16T11:28:00.479Z,97632.48
2019-05-16T11:30:24.185Z,97633.00
2019-05-16T11:32:48.352Z,97635.47
2019-05-16T11:35:11.970Z,97633.78
2019-05-16T11:37:37.621Z,97625.98
2019-05-16T11:40:00.741Z,97623.46
2019-05-16T11:42:24.249Z,97618.48
2019-05-16T11:44:48.038Z,97616.23
2019-05-16T11:47:11.571Z,97616.37
2019-05-16T11:49:36.904Z,97616.80
2019-05-16T11:52:00.597Z,97613.73
2019-05-16T11:54:26.440Z,97610.09
2019-05-16T11:56:49.593Z,97605.50
2019-05-16T11:59:13.193Z,97602.30
2019-05-16T12:01:37.031Z,97605.66
2019-05-16T12:04:00.706Z,97600.13
2019-05-16T12:06:26.629Z,97592.91
2019-05-16T12:08:49.507Z,97593.73
2019-05-16T12:11:13.116Z,97600.37
2019-05-16T12:13:37.076Z,97596.35
2019-05-16T12:16:00.862Z,97591.00
2019-05-16T12:18:26.404Z,97587.73
2019-05-16T12:20:49.767Z,97583.72
2019-05-16T12:23:13.355Z,97585.60
2019-05-16T12:25:36.992Z,97574.80
2019-05-16T12:28:00.502Z,97577.50
2019-05-16T12:30:24.234Z,97569.84
2019-05-16T12:32:47.748Z,97571.22
2019-05-16T12:35:12.721Z,97560.13
2019-05-16T12:37:37.283Z,97561.77
2019-05-16T12:40:01.206Z,97564.69
2019-05-16T12:42:26.987Z,97563.72
2019-05-16T12:44:50.085Z,97563.42
2019-05-16T12:47:13.588Z,97559.34
2019-05-16T12:49:37.123Z,97561.30
2019-05-16T12:52:00.706Z,97565.44
2019-05-16T12:54:24.245Z,97556.16
2019-05-16T12:56:48.375Z,97557.93
2019-05-16T12:59:17.824Z,97553.42
2019-05-16T13:01:38.492Z,97552.19
2019-05-16T13:04:02.264Z,97549.77
2019-05-16T13:06:27.746Z,97553.54
2019-05-16T13:08:53.466Z,97552.72
2019-05-16T13:11:17.734Z,97556.46
2019-05-16T13:13:41.432Z,97559.61
2019-05-16T13:16:07.511Z,97556.82
2019-05-16T13:18:30.357Z,97559.56
2019-05-16T13:20:53.948Z,97558.61
2019-05-16T13:23:18.184Z,97563.05
2019-05-16T13:25:42.035Z,97561.12
2019-05-16T13:28:07.925Z,97567.00
2019-05-16T13:30:31.026Z,97563.61
2019-05-16T13:32:56.513Z,97556.84
2019-05-16T13:35:20.159Z,97545.73
2019-05-16T13:37:43.675Z,97546.91
2019-05-16T13:40:09.059Z,97551.44
2019-05-16T13:42:32.609Z,97543.30
2019-05-16T13:44:57.753Z,97548.39
2019-05-16T13:47:21.508Z,97539.36
2019-05-16T13:49:45.070Z,97540.89
2019-05-16T13:52:08.640Z,97542.07
2019-05-16T13:54:32.174Z,97534.20
2019-05-16T13:56:57.220Z,97524.13
2019-05-16T13:59:21.034Z,97522.87
2019-05-16T14:01:44.601Z,97520.94
2019-05-16T14:04:09.775Z,97520.47
2019-05-16T14:06:33.472Z,97508.41
2019-05-16T14:08:57.000Z,97505.44
2019-05-16T14:11:20.505Z,97510.71
2019-05-16T14:13:44.010Z,97508.36
2019-05-16T14:16:07.626Z,97512.97
2019-05-16T14:18:31.117Z,97509.50
2019-05-16T14:20:57.124Z,97510.05
2019-05-16T14:23:19.898Z,97514.09
2019-05-16T14:25:43.680Z,97508.45
2019-05-16T14:28:07.795Z,97512.02
2019-05-16T14:30:31.496Z,97509.95
2019-05-16T14:33:00.336Z,97513.48
2019-05-16T14:35:20.403Z,97510.53
2019-05-16T14:37:43.881Z,97502.48
2019-05-16T14:40:08.497Z,97509.95
2019-05-16T14:42:32.136Z,97506.17
2019-05-16T14:45:06.393Z,97513.19
2019-05-16T14:47:20.895Z,97510.91
2019-05-16T14:49:44.424Z,97509.02
2019-05-16T14:52:07.953Z,97502.53
2019-05-16T14:54:31.465Z,97508.64
2019-05-16T14:57:00.248Z,97509.25
2019-05-16T14:59:20.241Z,97505.08
2019-05-16T15:01:47.268Z,97508.52
2019-05-16T15:04:09.973Z,97507.16
2019-05-16T15:06:33.504Z,97502.54
2019-05-16T15:08:57.022Z,97510.61
2019-05-16T15:11:20.553Z,97507.42
2019-05-16T15:13:44.065Z,97505.17
2019-05-16T15:16:07.879Z,97505.12
2019-05-16T15:18:31.544Z,97510.61
2019-05-16T15:20:57.523Z,97509.53
2019-05-16T15:23:20.336Z,97502.23
2019-05-16T15:25:43.851Z,97506.44
2019-05-16T15:28:08.019Z,97506.44
2019-05-16T15:30:31.529Z,97502.80
2019-05-16T15:32:56.969Z,97505.11
2019-05-16T15:35:22.101Z,97492.53
2019-05-16T15:37:48.223Z,97496.22
2019-05-16T15:40:11.402Z,97498.66
2019-05-16T15:42:37.315Z,97489.58
2019-05-16T15:45:00.199Z,97497.89
2019-05-16T15:47:23.739Z,97500.80
2019-05-16T15:49:47.846Z,97490.80
2019-05-16T15:52:11.537Z,97493.68
2019-05-16T15:54:37.596Z,97488.89
2019-05-16T15:57:00.622Z,97489.73
2019-05-16T15:59:27.015Z,97492.02
2019-05-16T16:01:49.408Z,97488.66
2019-05-16T16:04:13.282Z,97484.86
2019-05-16T16:06:37.925Z,97482.68
2019-05-16T16:09:01.600Z,97479.32
2019-05-16T16:11:27.263Z,97469.08
2019-05-16T16:13:50.948Z,97470.90
2019-05-16T16:16:14.453Z,97472.90
2019-05-16T16:18:38.077Z,97467.36
2019-05-16T16:21:01.592Z,97467.87
2019-05-16T16:23:27.284Z,97468.78
2019-05-16T16:25:51.682Z,97459.80
2019-05-16T16:28:17.776Z,97460.36
2019-05-16T16:30:41.633Z,97457.44
2019-05-16T16:33:19.053Z,97464.59
2019-05-16T16:35:30.846Z,97462.03
2019-05-16T16:37:54.599Z,97463.67
2019-05-16T16:40:18.606Z,97456.27
2019-05-16T16:42:42.291Z,97451.99
2019-05-16T16:45:07.450Z,97459.89
2019-05-16T16:47:31.232Z,97455.52
2019-05-16T16:49:59.051Z,97457.13
2019-05-16T16:52:20.185Z,97455.69
2019-05-16T16:54:43.765Z,97457.94
2019-05-16T16:57:07.944Z,97458.62
2019-05-16T16:59:31.927Z,97455.86
2019-05-16T17:01:57.226Z,97461.02
2019-05-16T17:04:20.829Z,97457.77
2019-05-16T17:06:46.981Z,97454.10
2019-05-16T17:09:09.713Z,97449.84
2019-05-16T17:11:33.225Z,97453.77
2019-05-16T17:13:56.816Z,97454.05
2019-05-16T17:16:25.674Z,97452.45
2019-05-16T17:18:47.518Z,97454.08
2019-05-16T17:21:11.164Z,97450.55
2019-05-16T17:23:36.911Z,97458.75
2019-05-16T17:25:59.919Z,97459.69
2019-05-16T17:28:23.645Z,97466.31
2019-05-16T17:30:47.320Z,97468.92
2019-05-16T17:33:10.867Z,97461.80
2019-05-16T17:35:34.401Z,97458.22
2019-05-16T17:37:57.957Z,97459.25
2019-05-16T17:40:21.679Z,97461.47
2019-05-16T17:42:47.635Z,97466.70
2019-05-16T17:45:11.093Z,97456.49
2019-05-16T17:47:36.882Z,97459.80
2019-05-16T17:49:59.843Z,97461.44
2019-05-16T17:52:23.356Z,97461.06
2019-05-16T17:54:46.886Z,97462.97
2019-05-16T17:57:10.388Z,97470.28
2019-05-16T17:59:33.925Z,97464.44
2019-05-16T18:01:57.440Z,97457.91
2019-05-16T18:04:21.016Z,97459.30
2019-05-16T18:06:44.545Z,97460.05
2019-05-16T18:09:09.747Z,97453.24
2019-05-16T18:11:33.250Z,97455.44
2019-05-16T18:13:57.147Z,97456.97
2019-05-16T18:16:20.680Z,97458.58
2019-05-16T18:18:46.729Z,97455.63
2019-05-16T18:21:09.551Z,97460.44
2019-05-16T18:23:33.098Z,97458.14
2019-05-16T18:25:57.599Z,97455.08
2019-05-16T18:28:21.309Z,97456.35
2019-05-16T18:30:47.073Z,97458.23
2019-05-16T18:33:10.073Z,97456.70
2019-05-16T18:35:33.592Z,97456.66
2019-05-16T18:37:57.156Z,97456.06
2019-05-16T18:40:21.088Z,97450.52
2019-05-16T18:42:44.623Z,97457.31
2019-05-16T18:45:08.574Z,97457.60
2019-05-16T18:47:32.073Z,97456.94
2019-05-16T18:49:57.340Z,97451.38
2019-05-16T18:52:21.022Z,97456.47
2019-05-16T18:54:46.671Z,97456.00
2019-05-16T18:57:09.834Z,97449.50
2019-05-16T18:59:33.367Z,97452.45
2019-05-16T19:01:56.890Z,97453.38
2019-05-16T19:04:20.437Z,97455.98
2019-05-16T19:06:44.013Z,97450.28
2019-05-16T19:09:08.389Z,97445.03
2019-05-16T19:11:31.893Z,97449.45
2019-05-16T19:13:56.368Z,97447.16
2019-05-16T19:16:20.688Z,97449.94
2019-05-16T19:18:44.237Z,97451.95
2019-05-16T19:21:07.905Z,97449.17
2019-05-16T19:23:31.465Z,97448.44
2019-05-16T19:25:56.883Z,97444.10
2019-05-16T19:28:20.400Z,97440.25
2019-05-16T19:30:46.388Z,97441.93
2019-05-16T19:33:09.228Z,97438.98
2019-05-16T19:35:32.772Z,97438.25
2019-05-16T19:37:56.996Z,97436.56
2019-05-16T19:40:20.998Z,97440.87
2019-05-16T19:42:46.660Z,97431.48
2019-05-16T19:45:10.836Z,97438.73
2019-05-16T19:47:38.483Z,97441.88
2019-05-16T19:49:59.670Z,97428.27
2019-05-16T19:52:23.160Z,97425.49
2019-05-16T19:54:47.215Z,97430.77
2019-05-16T19:57:10.870Z,97430.45
2019-05-16T19:59:36.583Z,97427.55
2019-05-16T20:02:00.205Z,97426.33
2019-05-16T20:04:24.064Z,97429.88
2019-05-16T20:06:47.907Z,97427.84
2019-05-16T20:09:11.573Z,97429.41
2019-05-16T20:11:36.998Z,97426.91
2019-05-16T20:14:00.510Z,97425.51
2019-05-16T20:16:24.206Z,97431.06
2019-05-16T20:18:47.947Z,97428.77
2019-05-16T20:21:11.879Z,97430.00
2019-05-16T20:23:37.007Z,97420.14
2019-05-16T20:26:00.676Z,97423.08
2019-05-16T20:28:26.513Z,97425.86
2019-05-16T20:30:50.913Z,97424.48
2019-05-16T20:33:14.493Z,97422.77
2019-05-16T20:35:38.097Z,97421.85
2019-05-16T20:38:02.568Z,97422.48
2019-05-16T20:40:26.571Z,97417.09
2019-05-16T20:42:50.186Z,97416.78
2019-05-16T20:45:16.770Z,97411.86
2019-05-16T20:47:39.530Z,97409.34
2019-05-16T20:50:03.626Z,97415.36
2019-05-16T20:52:27.203Z,97407.45
2019-05-16T20:54:51.108Z,97408.41
2019-05-16T20:57:17.107Z,97409.95
2019-05-16T20:59:39.948Z,97407.95
2019-05-16T21:02:03.521Z,97402.37
2019-05-16T21:04:27.051Z,97399.92
2019-05-16T21:07:00.443Z,97402.25
2019-05-16T21:09:16.934Z,97401.19
2019-05-16T21:11:40.489Z,97397.34
2019-05-16T21:14:04.104Z,97392.56
2019-05-16T21:16:27.620Z,97395.20
2019-05-16T21:18:51.162Z,97394.45
2019-05-16T21:21:16.592Z,97394.56
2019-05-16T21:23:39.954Z,97393.97
2019-05-16T21:26:03.469Z,97395.98
2019-05-16T21:28:27.122Z,97395.98
2019-05-16T21:30:50.654Z,97393.98
2019-05-16T21:33:16.500Z,97388.55
2019-05-16T21:35:39.445Z,97386.09
2019-05-16T21:38:02.955Z,97383.92
2019-05-16T21:40:26.701Z,97385.02
2019-05-16T21:42:50.284Z,97379.59
2019-05-16T21:45:14.156Z,97381.62
2019-05-16T21:47:37.666Z,97381.95
2019-05-16T21:50:01.270Z,97379.49
2019-05-16T21:52:28.546Z,97383.22
2019-05-16T21:54:50.137Z,97377.20
2019-05-16T21:57:17.481Z,97380.27
2019-05-16T21:59:38.962Z,97372.70
2019-05-16T22:02:02.939Z,97370.05
2019-05-16T22:04:26.590Z,97379.17
2019-05-16T22:06:50.130Z,97374.09
2019-05-16T22:09:13.712Z,97371.30
2019-05-16T22:11:37.328Z,97366.21
2019-05-16T22:14:00.842Z,97364.52
2019-05-16T22:16:24.457Z,97361.25
2019-05-16T22:18:48.063Z,97358.93
2019-05-16T22:21:11.619Z,97364.93
2019-05-16T22:23:37.225Z,97355.41
2019-05-16T22:26:00.462Z,97360.31
2019-05-16T22:28:23.993Z,97366.66
2019-05-16T22:31:08.244Z,97352.19
2019-05-16T22:33:32.075Z,97350.31
2019-05-16T22:35:57.699Z,97357.26
2019-05-16T22:38:20.947Z,97349.84
2019-05-16T22:40:44.492Z,97348.09
2019-05-16T22:43:10.312Z,97345.78
2019-05-16T22:45:33.517Z,97340.99
2019-05-16T22:47:57.031Z,97343.13
2019-05-16T22:50:20.909Z,97340.66
2019-05-16T22:52:44.495Z,97333.25
2019-05-16T22:55:08.819Z,97333.87
2019-05-16T22:57:32.377Z,97336.55
2019-05-16T22:59:56.955Z,97332.38
2019-05-16T23:02:20.808Z,97326.96
2019-05-16T23:04:44.381Z,97334.08
2019-05-16T23:07:08.649Z,97334.82
2019-05-16T23:09:32.175Z,97325.27
2019-05-16T23:11:56.312Z,97336.52
2019-05-16T23:14:19.975Z,97331.62
2019-05-16T23:16:43.565Z,97334.58
2019-05-16T23:19:07.103Z,97334.13
2019-05-16T23:21:31.900Z,97330.29
2019-05-16T23:23:57.111Z,97328.02
2019-05-16T23:26:20.678Z,97322.32
2019-05-16T23:28:44.262Z,97314.92
2019-05-16T23:31:07.816Z,97320.77
2019-05-16T23:33:31.366Z,97323.52
2019-05-16T23:35:57.366Z,97320.91
2019-05-16T23:38:20.296Z,97316.91
2019-05-16T23:40:46.671Z,97323.10
2019-05-16T23:43:09.429Z,97312.91
2019-05-16T23:45:33.151Z,97316.11
2019-05-16T23:47:56.703Z,97317.15
2019-05-16T23:50:20.226Z,97313.45
2019-05-16T23:52:43.761Z,97309.17
2019-05-16T23:55:08.694Z,97306.98
2019-05-16T23:57:32.362Z,97302.96
2019-05-16T23:59:56.798Z,97304.66
